KAXX

Angel Fire Airport

Angel Fire, New Mexico, USA
METAR KAXX 211335Z AUTO 00000KT 10SM CLR 14/09 A3048 RMK AO2 T01410089
Observed Flight Rules
Jul-21 @ 13:35 UTC (19 minutes ago) Visual Flight Rules
Visibility Clouds
10 miles
  • Clear skies
Temperatures Readings
Current 14°C / 57°F
Dewpoint 9°C / 48°F
Humidity 72%
Altimeter 30.48" Hg
Pressure 1032 hPa
Elevation 2548
METAR KAXX 211335Z AUTO 00000KT 10SM CLR 14/09 A3048 RMK AO2 T01410089
Observed Flight Rules
Jul-21 @ 13:35 UTC
(19 minutes ago)
VFR
Clouds
  • Clear skies
Temperature Dewpoint
14°C / 57°F 9°C / 48°F
Humidity Altimeter Pressure
72% 30.48" Hg 1032 hPa